Time;durP1;ratioP1;P1;durP2;ratioP2;P2;SDS_P1;SDS_P2;PMS_P1;PMS_P2;Temp;Humidity;BMP_temperature;BMP_pressure;BME280_temperature;BME280_humidity;BME280_pressure;Samples;Min_cycle;Max_cycle;Signal;HPM_P1;HPM_P2
2022/12/20 00:02:09;;;;;;;4.15;2.70;;;;;;;10.45;100.00;101347.84;5259985;28;20305;-88
2022/12/20 00:04:57;;;;;;;5.03;2.47;;;;;;;10.54;100.00;101341.75;5238195;28;20249;-87
2022/12/20 00:07:29;;;;;;;3.47;2.10;;;;;;;10.49;100.00;101339.47;5242147;28;20033;-87
2022/12/20 00:10:00;;;;;;;5.78;2.45;;;;;;;10.53;100.00;101342.72;5258987;28;20083;-86
2022/12/20 00:12:34;;;;;;;4.22;2.40;;;;;;;10.52;100.00;101336.53;5246334;28;20032;-87
2022/12/20 00:15:13;;;;;;;5.28;2.63;;;;;;;10.52;100.00;101327.69;5242759;28;20467;-88
2022/12/20 00:17:48;;;;;;;4.32;2.65;;;;;;;10.64;100.00;101325.78;5242300;28;20017;-87
2022/12/20 00:20:19;;;;;;;5.15;2.72;;;;;;;10.59;100.00;101321.69;5246318;28;20416;-87
2022/12/20 00:22:58;;;;;;;7.78;3.17;;;;;;;10.66;100.00;101332.69;5276752;28;20017;-87
2022/12/20 00:26:01;;;;;;;6.13;3.15;;;;;;;10.76;100.00;101320.25;5281119;28;20155;-88
2022/12/20 00:28:37;;;;;;;6.15;2.95;;;;;;;10.79;100.00;101325.31;5296891;28;20053;-88
2022/12/20 00:31:14;;;;;;;6.73;3.03;;;;;;;10.86;100.00;101319.47;5277433;28;20383;-88
2022/12/20 00:34:08;;;;;;;5.68;3.15;;;;;;;10.91;100.00;101307.41;5288526;28;20334;-86
2022/12/20 00:36:45;;;;;;;6.90;3.00;;;;;;;10.84;100.00;101305.41;5279329;28;20100;-87
2022/12/20 00:39:17;;;;;;;7.75;3.13;;;;;;;10.94;100.00;101320.50;5275224;28;20061;-87
2022/12/20 00:41:54;;;;;;;5.90;3.47;;;;;;;11.01;100.00;101306.59;5258303;28;20060;-87
2022/12/20 00:44:27;;;;;;;6.40;2.97;;;;;;;10.91;100.00;101291.38;5258419;28;20018;-87
2022/12/20 00:46:58;;;;;;;9.45;3.97;;;;;;;11.01;100.00;101311.94;5261375;28;20021;-87
2022/12/20 00:49:33;;;;;;;8.35;3.45;;;;;;;11.05;100.00;101295.53;5277464;28;20033;-87
2022/12/20 00:52:33;;;;;;;8.70;3.63;;;;;;;11.03;100.00;101284.13;5259420;28;20458;-87
2022/12/20 00:55:07;;;;;;;8.73;3.30;;;;;;;11.09;100.00;101306.78;5256408;28;20109;-87
2022/12/20 00:57:42;;;;;;;8.98;3.85;;;;;;;11.21;100.00;101311.03;5257361;28;20033;-88
2022/12/20 01:00:14;;;;;;;7.75;3.60;;;;;;;11.12;100.00;101311.84;5260391;28;20037;-87
2022/12/20 01:02:45;;;;;;;5.32;3.13;;;;;;;11.02;100.00;101306.47;5260113;28;20020;-87
2022/12/20 01:05:20;;;;;;;7.82;3.10;;;;;;;10.79;100.00;101311.13;5261041;28;20033;-87
2022/12/20 01:07:57;;;;;;;6.50;3.40;;;;;;;10.37;100.00;101298.66;5260062;28;20025;-87
2022/12/20 01:10:32;;;;;;;8.85;3.70;;;;;;;9.92;100.00;101298.88;5259162;28;20076;-87
2022/12/20 01:13:04;;;;;;;8.95;3.58;;;;;;;9.57;100.00;101299.06;5260240;28;20108;-87
2022/12/20 01:15:36;;;;;;;6.00;3.20;;;;;;;9.62;100.00;101319.06;5260830;28;20391;-88
2022/12/20 01:18:10;;;;;;;5.90;2.78;;;;;;;9.54;100.00;101323.31;5257915;28;20033;-87
2022/12/20 01:20:41;;;;;;;4.50;3.08;;;;;;;9.53;100.00;101327.78;5257724;28;20030;-87
2022/12/20 01:23:13;;;;;;;5.93;3.25;;;;;;;9.52;100.00;101306.59;5263153;28;20076;-87
2022/12/20 01:25:49;;;;;;;7.80;3.50;;;;;;;9.40;100.00;101308.44;5257204;28;20129;-88
2022/12/20 01:28:21;;;;;;;11.85;3.95;;;;;;;9.42;100.00;101333.13;5257537;28;20402;-87
2022/12/20 01:30:52;;;;;;;4.28;3.10;;;;;;;9.34;100.00;101324.91;5261281;28;20034;-87
2022/12/20 01:33:24;;;;;;;6.95;3.33;;;;;;;9.37;100.00;101336.13;5279306;28;20021;-86
2022/12/20 01:36:02;;;;;;;5.50;3.40;;;;;;;9.32;100.00;101317.03;5258664;28;20037;-86
2022/12/20 01:38:37;;;;;;;6.03;3.58;;;;;;;9.24;100.00;101307.00;5262562;28;20076;-87
2022/12/20 01:41:17;;;;;;;5.25;3.42;;;;;;;9.22;100.00;101292.97;5261101;28;20083;-88
2022/12/20 01:43:54;;;;;;;4.60;3.53;;;;;;;9.19;100.00;101301.19;5261084;28;20080;-88
2022/12/20 01:46:29;;;;;;;4.93;3.80;;;;;;;9.22;100.00;101321.38;5259967;28;20064;-88
2022/12/20 01:49:06;;;;;;;4.05;3.55;;;;;;;9.20;100.00;101305.56;5262467;28;20044;-87
2022/12/20 01:51:46;;;;;;;5.38;3.90;;;;;;;9.19;100.00;101311.84;5256921;28;20045;-87
2022/12/20 01:54:29;;;;;;;9.25;3.97;;;;;;;9.19;100.00;101268.41;5262948;28;20041;-86
2022/12/20 01:57:10;;;;;;;4.35;3.60;;;;;;;9.08;100.00;101261.28;5262436;28;20022;-87
2022/12/20 01:59:45;;;;;;;6.55;3.90;;;;;;;9.13;100.00;101253.75;5263856;28;20434;-88
2022/12/20 02:02:19;;;;;;;8.05;4.13;;;;;;;9.15;100.00;101264.28;5262683;28;20026;-88
2022/12/20 02:04:51;;;;;;;7.38;4.10;;;;;;;9.20;100.00;101278.94;5261445;28;20120;-88
2022/12/20 02:07:30;;;;;;;9.95;4.50;;;;;;;9.22;100.00;101281.47;5260328;28;20128;-87
2022/12/20 02:10:03;;;;;;;10.88;4.78;;;;;;;9.21;100.00;101279.78;5261086;28;20081;-89
2022/12/20 02:12:45;;;;;;;12.25;4.93;;;;;;;9.17;100.00;101265.88;5258615;28;20427;-89
2022/12/20 02:15:30;;;;;;;12.52;5.15;;;;;;;9.17;100.00;101257.91;5262607;28;20045;-88
2022/12/20 02:18:23;;;;;;;8.57;4.80;;;;;;;9.15;100.00;101243.00;5272442;28;20026;-88
2022/12/20 02:20:58;;;;;;;8.88;4.40;;;;;;;9.11;100.00;101252.22;5275097;28;20030;-88
2022/12/20 02:24:00;;;;;;;8.48;4.32;;;;;;;9.07;100.00;101238.31;5263702;28;20029;-87
2022/12/20 02:26:59;;;;;;;6.10;3.80;;;;;;;9.11;100.00;101237.06;5256596;28;20052;-87
2022/12/20 02:29:39;;;;;;;6.68;4.20;;;;;;;9.11;100.00;101244.22;5261563;28;20091;-88
2022/12/20 02:32:23;;;;;;;5.35;3.90;;;;;;;9.13;100.00;101248.44;5260705;28;20124;-87
2022/12/20 02:34:55;;;;;;;6.25;4.00;;;;;;;9.05;100.00;101249.06;5243752;28;20144;-88
2022/12/20 02:37:26;;;;;;;5.20;3.70;;;;;;;9.00;100.00;101223.81;5241149;28;20071;-87
2022/12/20 02:39:57;;;;;;;4.30;3.70;;;;;;;9.03;100.00;101229.72;5260889;28;20121;-87
2022/12/20 02:42:32;;;;;;;5.18;3.10;;;;;;;9.04;100.00;101239.38;5241919;28;20030;-88
2022/12/20 02:45:14;;;;;;;4.85;3.40;;;;;;;9.00;100.00;101231.78;5247111;28;20037;-87
2022/12/20 02:47:46;;;;;;;4.10;3.22;;;;;;;8.96;100.00;101230.31;5261919;28;20025;-87
2022/12/20 02:50:22;;;;;;;4.15;2.72;;;;;;;8.97;100.00;101232.03;5261993;28;20033;-87
2022/12/20 02:52:54;;;;;;;6.18;3.05;;;;;;;9.01;100.00;101222.81;5241739;28;20350;-87
2022/12/20 02:55:44;;;;;;;3.83;3.10;;;;;;;9.03;100.00;101218.25;5245646;28;20033;-87
2022/12/20 02:58:57;;;;;;;4.68;3.17;;;;;;;9.04;100.00;101228.75;5260200;28;20047;-87
2022/12/20 03:01:46;;;;;;;5.57;3.15;;;;;;;9.08;100.00;101224.88;5203338;28;21576;-87
2022/12/20 03:04:21;;;;;;;4.13;2.63;;;;;;;9.09;100.00;101220.41;5263148;28;20069;-87
2022/12/20 03:07:02;;;;;;;3.92;2.90;;;;;;;9.09;100.00;101213.25;5245592;28;20607;-88
2022/12/20 03:09:37;;;;;;;5.10;2.50;;;;;;;9.13;100.00;101213.00;5246481;28;20033;-88
2022/12/20 03:12:12;;;;;;;3.45;2.58;;;;;;;9.22;100.00;101220.25;5264119;28;20034;-88
2022/12/20 03:14:44;;;;;;;3.67;2.77;;;;;;;9.28;100.00;101251.69;5265423;28;20028;-87
2022/12/20 03:17:15;;;;;;;3.67;2.70;;;;;;;9.25;100.00;101220.00;5247820;28;20022;-87
2022/12/20 03:19:46;;;;;;;2.85;2.33;;;;;;;9.26;100.00;101219.88;5265669;28;20132;-88
2022/12/20 03:22:18;;;;;;;3.25;2.50;;;;;;;9.29;100.00;101218.78;5247192;28;20105;-87
2022/12/20 03:24:49;;;;;;;5.43;2.63;;;;;;;9.39;100.00;101202.91;5271113;28;20037;-87
2022/12/20 03:27:21;;;;;;;4.45;2.60;;;;;;;9.40;100.00;101208.09;5278860;28;20036;-87
2022/12/20 03:29:53;;;;;;;2.85;2.40;;;;;;;9.36;100.00;101205.81;5282019;28;20040;-88
2022/12/20 03:32:24;;;;;;;3.15;2.30;;;;;;;9.50;100.00;101202.84;5264017;28;20025;-87
2022/12/20 03:34:55;;;;;;;3.88;2.50;;;;;;;9.56;100.00;101205.03;5283175;28;20029;-87
2022/12/20 03:37:27;;;;;;;4.93;2.65;;;;;;;9.58;100.00;101196.91;5257292;28;20052;-87
2022/12/20 03:39:58;;;;;;;3.65;2.50;;;;;;;9.67;100.00;101219.28;5274746;28;20041;-88
2022/12/20 03:42:30;;;;;;;3.38;2.30;;;;;;;9.76;100.00;101211.34;5263372;28;20090;-87
2022/12/20 03:45:02;;;;;;;4.95;2.75;;;;;;;9.80;100.00;101218.13;5284312;28;20022;-87
2022/12/20 03:47:33;;;;;;;2.85;2.30;;;;;;;9.81;100.00;101217.13;5271294;28;20036;-87
2022/12/20 03:50:06;;;;;;;4.32;2.70;;;;;;;9.89;100.00;101220.97;5275811;28;20029;-89
2022/12/20 03:52:37;;;;;;;4.55;2.00;;;;;;;9.87;100.00;101220.25;5260655;28;20021;-89
2022/12/20 03:55:09;;;;;;;2.72;2.28;;;;;;;9.93;100.00;101217.09;5261315;28;20029;-87
2022/12/20 03:57:41;;;;;;;2.72;2.10;;;;;;;10.02;100.00;101211.81;5274857;28;20136;-87
2022/12/20 04:00:13;;;;;;;3.50;2.30;;;;;;;10.11;100.00;101214.69;5262185;28;20033;-86
2022/12/20 04:02:44;;;;;;;4.38;2.10;;;;;;;10.16;100.00;101204.47;5279706;28;20054;-88
2022/12/20 04:05:16;;;;;;;2.58;2.10;;;;;;;10.17;100.00;101196.34;5263568;28;20046;-88
2022/12/20 04:07:47;;;;;;;2.92;2.03;;;;;;;10.17;100.00;101201.69;5263870;28;20655;-87
2022/12/20 04:10:18;;;;;;;4.32;2.38;;;;;;;10.25;100.00;101203.69;5258900;28;20034;-88
2022/12/20 04:12:50;;;;;;;3.83;2.00;;;;;;;10.22;100.00;101207.47;5260739;28;20026;-87
2022/12/20 04:15:21;;;;;;;2.75;2.17;;;;;;;10.31;100.00;101208.53;5279245;28;20025;-87
2022/12/20 04:17:53;;;;;;;3.33;2.03;;;;;;;10.29;100.00;101206.94;5276687;28;20024;-87
2022/12/20 04:20:24;;;;;;;5.35;2.22;;;;;;;10.30;100.00;101204.13;5271231;28;20033;-87
2022/12/20 04:22:55;;;;;;;3.10;2.20;;;;;;;10.39;100.00;101234.53;5288076;28;20033;-88
2022/12/20 04:25:27;;;;;;;4.55;2.13;;;;;;;10.48;100.00;101214.22;5281211;28;20013;-88
2022/12/20 04:27:58;;;;;;;5.13;1.98;;;;;;;10.57;100.00;101197.41;5282083;28;20049;-88
2022/12/20 04:30:29;;;;;;;3.33;2.10;;;;;;;10.65;100.00;101213.59;5252844;28;20073;-86
2022/12/20 04:33:02;;;;;;;3.60;1.77;;;;;;;10.74;100.00;101202.13;5245337;28;20101;-87
2022/12/20 04:35:33;;;;;;;2.35;1.92;;;;;;;10.73;100.00;101192.44;5258604;28;20021;-87
2022/12/20 04:38:04;;;;;;;2.50;1.80;;;;;;;10.69;100.00;101199.00;5260617;28;20036;-87
2022/12/20 04:40:36;;;;;;;6.25;2.05;;;;;;;10.65;100.00;101194.09;5257410;28;20104;-88
2022/12/20 04:43:08;;;;;;;3.75;2.15;;;;;;;10.68;100.00;101202.69;5259980;28;20053;-86
2022/12/20 04:45:39;;;;;;;4.63;2.20;;;;;;;10.71;100.00;101193.53;5241714;28;20021;-86
2022/12/20 04:48:10;;;;;;;2.28;1.60;;;;;;;10.72;100.00;101184.56;5261217;28;20100;-87
2022/12/20 04:50:42;;;;;;;4.95;2.13;;;;;;;10.71;100.00;101194.41;5241801;28;20037;-87
2022/12/20 04:56:03;;;;;;;4.90;2.50;;;;;;;10.78;100.00;101194.69;5258625;28;20068;-87
2022/12/20 04:58:35;;;;;;;4.45;1.80;;;;;;;10.77;100.00;101191.19;5241619;28;20079;-87
2022/12/20 05:01:07;;;;;;;3.55;1.70;;;;;;;10.81;100.00;101191.75;5258877;28;20034;-87
2022/12/20 05:03:38;;;;;;;3.53;1.95;;;;;;;10.82;100.00;101198.81;5258848;28;20090;-87
2022/12/20 05:06:11;;;;;;;4.88;1.90;;;;;;;10.83;100.00;101170.28;5262743;28;20398;-87
2022/12/20 05:08:42;;;;;;;2.30;1.98;;;;;;;10.86;100.00;101167.34;5264031;28;20029;-86
2022/12/20 05:11:14;;;;;;;3.67;1.60;;;;;;;10.92;100.00;101177.47;5262579;28;20103;-86
2022/12/20 05:13:45;;;;;;;3.00;1.90;;;;;;;10.92;100.00;101180.13;5245570;28;20091;-87
2022/12/20 05:16:17;;;;;;;3.65;1.63;;;;;;;10.95;100.00;101163.84;5246877;28;20029;-87
2022/12/20 05:18:48;;;;;;;4.55;2.03;;;;;;;10.97;100.00;101168.09;5244049;28;20371;-87
2022/12/20 05:26:59;;;;;;;2.45;1.80;;;;;;;11.05;100.00;101137.19;5261666;28;21735;-87
2022/12/20 05:29:31;;;;;;;3.72;2.22;;;;;;;11.04;100.00;101135.50;5272414;28;20048;-88
2022/12/20 05:32:02;;;;;;;3.15;1.95;;;;;;;11.03;100.00;101141.84;5261241;28;20396;-88
2022/12/20 05:34:33;;;;;;;5.28;1.90;;;;;;;11.03;100.00;101136.50;5265378;28;20393;-87
2022/12/20 05:37:05;;;;;;;2.95;1.65;;;;;;;11.08;100.00;101137.75;5263395;28;20116;-88
2022/12/20 05:39:37;;;;;;;4.85;1.73;;;;;;;11.06;100.00;101130.84;5261868;28;20024;-88
2022/12/20 05:42:08;;;;;;;3.45;1.80;;;;;;;11.07;100.00;101140.56;5263774;28;20057;-87
2022/12/20 05:44:39;;;;;;;1.95;1.60;;;;;;;11.04;100.00;101122.16;5260666;28;20028;-88
2022/12/20 05:47:11;;;;;;;2.75;1.70;;;;;;;11.05;100.00;101139.88;5277626;28;20037;-86
2022/12/20 05:49:42;;;;;;;2.90;1.60;;;;;;;11.01;100.00;101130.41;5277107;28;20400;-88
2022/12/20 05:52:13;;;;;;;2.65;1.60;;;;;;;11.04;100.00;101125.66;5261862;28;20105;-88
2022/12/20 05:54:45;;;;;;;1.85;1.65;;;;;;;11.01;100.00;101111.75;5262422;28;20546;-87
2022/12/20 05:57:16;;;;;;;4.40;2.00;;;;;;;11.02;100.00;101122.28;5278676;28;20168;-87
2022/12/20 05:59:48;;;;;;;2.85;1.50;;;;;;;10.98;100.00;101100.38;5259258;28;20047;-87
2022/12/20 06:02:19;;;;;;;3.75;1.88;;;;;;;10.96;100.00;101094.31;5259302;28;20466;-87
2022/12/20 06:04:50;;;;;;;2.45;1.67;;;;;;;10.95;100.00;101100.63;5261836;28;20017;-87
2022/12/20 06:07:22;;;;;;;3.13;1.52;;;;;;;10.92;100.00;101082.25;5261818;28;20490;-87
2022/12/20 06:09:54;;;;;;;3.50;1.73;;;;;;;10.88;100.00;101071.97;5260267;28;20096;-87
2022/12/20 06:12:26;;;;;;;3.80;1.63;;;;;;;10.89;100.00;101068.34;5258946;28;20026;-88
2022/12/20 06:14:57;;;;;;;3.72;1.77;;;;;;;10.85;100.00;101062.44;5261020;28;20044;-87
2022/12/20 06:17:28;;;;;;;2.80;1.73;;;;;;;10.80;100.00;101070.00;5260764;28;20101;-87
2022/12/20 06:20:00;;;;;;;4.07;1.55;;;;;;;10.80;100.00;101070.00;5260190;28;20025;-87
2022/12/20 06:22:32;;;;;;;2.22;1.55;;;;;;;10.82;100.00;101069.84;5260792;28;20088;-88
2022/12/20 06:25:04;;;;;;;4.10;1.50;;;;;;;10.79;100.00;101070.97;5259206;28;20378;-87
2022/12/20 06:27:35;;;;;;;3.65;1.95;;;;;;;10.74;100.00;101066.06;5260710;28;20029;-87
2022/12/20 06:30:10;;;;;;;3.15;1.30;;;;;;;10.71;100.00;101074.34;5244955;28;20512;-87
2022/12/20 06:32:41;;;;;;;5.22;1.92;;;;;;;10.70;100.00;101077.16;5245495;28;20084;-87
2022/12/20 06:35:13;;;;;;;2.90;1.42;;;;;;;10.68;100.00;101085.28;5264699;28;20486;-87
2022/12/20 06:37:45;;;;;;;3.22;1.50;;;;;;;10.72;100.00;101083.19;5242311;28;20025;-87
2022/12/20 06:40:16;;;;;;;3.40;1.55;;;;;;;10.76;100.00;101077.47;5264121;28;20025;-87
2022/12/20 06:42:49;;;;;;;2.30;1.70;;;;;;;10.74;100.00;101073.22;5262510;28;20504;-87
2022/12/20 06:45:20;;;;;;;3.65;1.40;;;;;;;10.84;100.00;101078.59;5243650;28;20025;-87
2022/12/20 06:47:52;;;;;;;3.72;1.77;;;;;;;10.82;100.00;101088.53;5264684;28;20065;-87
2022/12/20 06:50:23;;;;;;;1.70;1.30;;;;;;;10.81;100.00;101076.19;5268688;28;20486;-87
2022/12/20 06:52:55;;;;;;;2.95;1.63;;;;;;;10.84;100.00;101076.75;5275124;28;20018;-86
2022/12/20 06:55:26;;;;;;;3.75;1.40;;;;;;;10.89;100.00;101073.69;5265881;28;20019;-86
2022/12/20 06:57:57;;;;;;;3.63;1.52;;;;;;;10.94;100.00;101074.09;5268487;28;20041;-86
2022/12/20 07:00:29;;;;;;;2.45;1.30;;;;;;;10.95;100.00;101087.28;5276432;28;20052;-88
2022/12/20 07:03:01;;;;;;;2.53;1.35;;;;;;;10.95;100.00;101075.78;5254897;28;20060;-87
2022/12/20 07:05:32;;;;;;;3.13;1.50;;;;;;;10.94;100.00;101082.13;5244708;28;20026;-86
2022/12/20 07:08:04;;;;;;;5.15;1.55;;;;;;;10.97;100.00;101081.81;5245527;28;20074;-86
2022/12/20 07:10:36;;;;;;;3.65;1.65;;;;;;;11.00;100.00;101081.53;5258917;28;20106;-87
2022/12/20 07:13:08;;;;;;;3.38;1.73;;;;;;;11.02;100.00;101090.25;5243677;28;20044;-87
2022/12/20 07:15:39;;;;;;;2.63;1.30;;;;;;;11.05;100.00;101081.13;5242829;28;20037;-85
2022/12/20 07:18:11;;;;;;;1.50;1.33;;;;;;;11.07;100.00;101089.84;5244618;28;20029;-86
2022/12/20 07:20:42;;;;;;;4.10;1.63;;;;;;;11.09;100.00;101088.69;5259644;28;20103;-86
2022/12/20 07:23:13;;;;;;;1.92;1.40;;;;;;;11.12;100.00;101091.09;5261433;28;20068;-86
2022/12/20 07:25:55;;;;;;;2.45;1.30;;;;;;;11.14;100.00;101088.28;5242078;28;20367;-86
2022/12/20 07:28:27;;;;;;;3.38;1.70;;;;;;;11.16;100.00;101073.81;5253316;28;20057;-88
2022/12/20 07:31:02;;;;;;;3.03;1.35;;;;;;;11.16;100.00;101084.50;5262978;28;20073;-88
2022/12/20 07:33:33;;;;;;;2.92;1.55;;;;;;;11.23;100.00;101079.44;5234951;28;20030;-87
2022/12/20 07:36:08;;;;;;;1.77;1.10;;;;;;;11.21;100.00;101081.41;5245008;28;20037;-86
2022/12/20 07:38:41;;;;;;;2.25;1.33;;;;;;;11.18;100.00;101088.84;5246315;28;20018;-86
2022/12/20 07:41:16;;;;;;;3.58;1.38;;;;;;;11.16;100.00;101099.66;5262714;28;20029;-86
2022/12/20 07:43:47;;;;;;;4.65;1.80;;;;;;;11.15;100.00;101085.50;5263336;28;20371;-87
2022/12/20 07:46:20;;;;;;;2.75;1.42;;;;;;;11.16;100.00;101097.84;5264026;28;20061;-87
2022/12/20 07:48:51;;;;;;;2.83;1.30;;;;;;;11.16;100.00;101089.81;5245193;28;20521;-87
2022/12/20 07:51:30;;;;;;;2.35;1.40;;;;;;;11.24;100.00;101094.47;5243260;28;20076;-87
2022/12/20 07:54:10;;;;;;;2.22;1.70;;;;;;;11.23;100.00;101097.28;5240584;28;20405;-85
2022/12/20 07:56:47;;;;;;;2.50;1.30;;;;;;;11.27;100.00;101104.91;5240798;28;20026;-85
2022/12/20 07:59:23;;;;;;;2.47;1.38;;;;;;;11.20;100.00;101114.41;5245274;28;20041;-85
2022/12/20 08:01:55;;;;;;;2.28;1.50;;;;;;;10.90;100.00;101110.88;5257945;28;20485;-86
2022/12/20 08:04:29;;;;;;;3.72;1.38;;;;;;;10.61;100.00;101113.50;5242194;28;20103;-85
2022/12/20 08:07:01;;;;;;;3.70;1.63;;;;;;;10.30;100.00;101117.97;5239069;28;20782;-85
2022/12/20 08:09:38;;;;;;;3.83;1.58;;;;;;;10.11;100.00;101116.91;5244294;28;20064;-85
2022/12/20 08:12:15;;;;;;;2.47;1.35;;;;;;;9.98;100.00;101103.81;5243672;28;20083;-85
2022/12/20 08:14:46;;;;;;;;;;;;;;;9.87;100.00;101114.56;5239774;28;20104;-85
2022/12/20 08:17:18;;;;;;;2.65;1.60;;;;;;;9.89;100.00;101101.94;5245017;28;20543;-85
2022/12/20 08:19:50;;;;;;;5.70;1.88;;;;;;;9.90;100.00;101111.59;5240997;28;20163;-85
2022/12/20 08:22:22;;;;;;;4.32;1.63;;;;;;;9.88;100.00;101110.91;5242410;28;20029;-85
2022/12/20 08:24:53;;;;;;;4.25;2.00;;;;;;;9.86;100.00;101117.34;5241199;28;20088;-85
2022/12/20 08:27:25;;;;;;;3.33;2.10;;;;;;;9.86;100.00;101114.69;5239004;28;20425;-85
2022/12/20 08:29:56;;;;;;;4.10;2.00;;;;;;;9.78;100.00;101112.66;5259282;28;20111;-85
2022/12/20 08:32:28;;;;;;;4.78;1.90;;;;;;;9.74;100.00;101117.41;5257695;28;20115;-87
2022/12/20 08:35:00;;;;;;;4.93;2.45;;;;;;;9.78;100.00;101109.97;5257730;28;20026;-87
2022/12/20 08:37:31;;;;;;;4.95;2.10;;;;;;;9.72;100.00;101113.19;5256659;28;20033;-86
2022/12/20 08:40:03;;;;;;;3.50;1.98;;;;;;;9.67;100.00;101116.22;5257514;28;20637;-86
2022/12/20 08:42:35;;;;;;;2.97;2.00;;;;;;;9.64;100.00;101105.81;5259195;28;20041;-86
2022/12/20 08:45:06;;;;;;;3.72;1.95;;;;;;;9.61;100.00;101111.44;5257293;28;20029;-86
2022/12/20 08:47:38;;;;;;;4.63;2.53;;;;;;;9.61;100.00;101106.94;5254595;28;20081;-86
2022/12/20 08:50:10;;;;;;;4.70;2.20;;;;;;;9.57;100.00;101108.19;5259335;28;20449;-85
2022/12/20 08:52:41;;;;;;;6.35;2.50;;;;;;;9.51;100.00;101097.22;5257245;28;20037;-86
2022/12/20 08:55:13;;;;;;;5.75;2.30;;;;;;;9.51;100.00;101092.72;5258334;28;20722;-86
2022/12/20 08:57:44;;;;;;;5.65;2.30;;;;;;;9.49;100.00;101093.84;5255968;28;20025;-87
2022/12/20 09:00:26;;;;;;;3.55;2.72;;;;;;;9.46;100.00;101106.41;5272302;28;20075;-86
2022/12/20 09:02:58;;;;;;;6.13;2.85;;;;;;;9.40;100.00;101104.28;5254798;28;20037;-86
2022/12/20 09:05:29;;;;;;;5.05;2.88;;;;;;;9.44;100.00;101099.53;5259648;28;20457;-87
2022/12/20 09:08:01;;;;;;;5.30;2.72;;;;;;;9.42;100.00;101089.00;5260842;28;20048;-85
2022/12/20 09:10:32;;;;;;;5.97;2.90;;;;;;;9.38;100.00;101079.59;5267587;28;20038;-87
2022/12/20 09:13:04;;;;;;;4.35;3.00;;;;;;;9.39;100.00;101073.28;5241541;28;20373;-86
2022/12/20 09:15:36;;;;;;;5.82;3.10;;;;;;;9.40;100.00;101077.66;5271376;28;20033;-85
2022/12/20 09:18:08;;;;;;;4.82;2.72;;;;;;;9.43;100.00;101073.88;5259920;28;20033;-86
2022/12/20 09:20:45;;;;;;;5.15;3.15;;;;;;;9.44;100.00;101087.06;5260967;28;20071;-85
2022/12/20 09:23:17;;;;;;;6.47;3.63;;;;;;;9.50;100.00;101085.69;5259798;28;20140;-86
2022/12/20 09:25:48;;;;;;;6.10;3.40;;;;;;;9.54;100.00;101084.47;5260988;28;20204;-86
2022/12/20 09:28:21;;;;;;;5.38;3.58;;;;;;;9.55;100.00;101082.66;5258326;28;20128;-86
2022/12/20 09:30:57;;;;;;;5.95;3.78;;;;;;;9.68;100.00;101093.09;5285323;28;20037;-86
2022/12/20 09:33:30;;;;;;;4.93;3.20;;;;;;;9.72;100.00;101094.53;5275418;28;20040;-86
2022/12/20 09:36:03;;;;;;;4.65;3.10;;;;;;;9.73;100.00;101091.75;5282553;28;20061;-86
2022/12/20 09:38:35;;;;;;;5.13;3.17;;;;;;;9.72;100.00;101097.22;5285979;28;20032;-86
2022/12/20 09:41:24;;;;;;;5.72;3.20;;;;;;;9.73;100.00;101089.09;5263272;28;20029;-86
2022/12/20 09:43:57;;;;;;;7.82;3.17;;;;;;;9.77;100.00;101085.19;5257362;28;20021;-86
2022/12/20 09:46:29;;;;;;;4.60;3.08;;;;;;;9.80;100.00;101081.38;5272901;28;20026;-85
2022/12/20 09:49:15;;;;;;;4.78;2.60;;;;;;;9.79;100.00;101087.72;5257335;28;20021;-85
2022/12/20 09:55:34;;;;;;;4.55;2.80;;;;;;;9.70;100.00;101094.66;5249102;28;20280;-84
2022/12/20 09:58:42;;;;;;;6.65;2.70;;;;;;;9.74;100.00;101085.44;5261919;28;20099;-84
2022/12/20 10:01:43;;;;;;;3.97;2.55;;;;;;;9.73;100.00;101096.22;5255694;28;20674;-83
2022/12/20 10:04:27;;;;;;;12.75;3.72;;;;;;;9.74;100.00;101077.44;5269166;28;20029;-84
2022/12/20 10:07:36;;;;;;;4.70;2.40;;;;;;;9.70;100.00;101070.69;5276951;28;20886;-86
2022/12/20 10:10:40;;;;;;;5.18;2.97;;;;;;;9.77;100.00;101077.19;5241314;28;20057;-86
2022/12/20 10:13:36;;;;;;;3.25;2.60;;;;;;;9.87;100.00;101081.72;5276798;28;20056;-86
2022/12/20 10:16:27;;;;;;;4.18;2.50;;;;;;;9.96;100.00;101081.78;5260546;28;20160;-87
2022/12/20 10:19:09;;;;;;;4.95;2.50;;;;;;;10.00;100.00;101085.03;5271373;28;20033;-87
2022/12/20 10:21:51;;;;;;;3.00;2.30;;;;;;;10.03;100.00;101080.25;5277274;28;20038;-85
2022/12/20 10:24:29;;;;;;;4.00;2.30;;;;;;;10.03;100.00;101074.09;5272440;28;20030;-85
2022/12/20 10:27:18;;;;;;;5.85;2.47;;;;;;;10.08;100.00;101073.69;5275458;28;20060;-85
2022/12/20 10:29:51;;;;;;;3.63;2.53;;;;;;;10.11;100.00;101086.75;5257879;28;20052;-86
2022/12/20 10:32:23;;;;;;;6.45;2.53;;;;;;;10.11;100.00;101079.59;5243813;28;20018;-85
2022/12/20 10:35:04;;;;;;;6.72;2.90;;;;;;;10.08;100.00;101082.53;5243952;28;20030;-86
2022/12/20 10:37:37;;;;;;;4.40;2.65;;;;;;;10.03;100.00;101079.44;5263818;28;20052;-86
2022/12/20 10:40:26;;;;;;;5.28;3.20;;;;;;;10.01;100.00;101076.03;5279048;28;20022;-86
2022/12/20 10:42:59;;;;;;;5.03;3.40;;;;;;;10.01;100.00;101073.38;5264318;28;20018;-84
2022/12/20 10:45:30;;;;;;;5.47;3.70;;;;;;;9.96;100.00;101068.44;5279605;28;20030;-83
2022/12/20 10:48:24;;;;;;;8.27;3.88;;;;;;;9.97;100.00;101082.63;5264701;28;20046;-84
2022/12/20 10:51:08;;;;;;;5.60;4.25;;;;;;;9.93;100.00;101050.06;5260862;28;20490;-83
2022/12/20 10:54:00;;;;;;;11.57;6.80;;;;;;;9.94;100.00;101057.09;5242361;28;20026;-85
2022/12/20 10:56:37;;;;;;;12.32;6.75;;;;;;;9.92;100.00;101071.50;5258979;28;20041;-87
2022/12/20 10:59:14;;;;;;;10.90;6.97;;;;;;;9.86;100.00;101051.56;5250639;28;20034;-83
2022/12/20 11:01:47;;;;;;;10.05;6.10;;;;;;;9.87;100.00;101057.72;5264099;28;20026;-85
2022/12/20 11:04:30;;;;;;;8.85;5.60;;;;;;;9.85;100.00;101063.19;5255578;28;20445;-84
2022/12/20 11:07:21;;;;;;;9.35;5.07;;;;;;;9.83;100.00;101059.81;5261621;28;20021;-84
2022/12/20 11:10:17;;;;;;;8.02;4.90;;;;;;;9.88;100.00;101056.78;5261988;28;20049;-84
2022/12/20 11:12:57;;;;;;;9.02;5.03;;;;;;;9.87;100.00;101047.94;5262421;28;20025;-85
2022/12/20 11:15:32;;;;;;;7.75;5.13;;;;;;;9.87;100.00;101068.41;5262529;28;20025;-85
2022/12/20 11:18:51;;;;;;;6.47;5.18;;;;;;;9.89;100.00;101043.31;5262852;28;20446;-84
2022/12/20 11:22:00;;;;;;;7.88;5.18;;;;;;;9.88;100.00;101038.13;5225612;28;20157;-84
2022/12/20 11:24:37;;;;;;;7.22;4.68;;;;;;;9.90;100.00;101054.81;5242302;28;20073;-85
2022/12/20 11:27:26;;;;;;;8.27;4.75;;;;;;;9.87;100.00;101045.28;5257969;28;20058;-86
2022/12/20 11:30:34;;;;;;;8.90;4.82;;;;;;;9.86;100.00;101050.72;5254746;28;20049;-85
2022/12/20 11:33:29;;;;;;;10.68;5.60;;;;;;;9.87;100.00;101037.28;5279334;28;20044;-85
2022/12/20 11:36:29;;;;;;;7.13;5.38;;;;;;;9.93;100.00;101042.06;5263547;28;20029;-85
2022/12/20 11:39:23;;;;;;;9.20;5.90;;;;;;;9.93;100.00;101042.06;5242124;28;20548;-85
2022/12/20 11:42:11;;;;;;;11.27;6.05;;;;;;;9.92;100.00;101036.88;5241418;28;20034;-85
2022/12/20 11:44:52;;;;;;;8.82;6.07;;;;;;;9.83;100.00;101031.38;5253203;28;20091;-85
2022/12/20 11:47:55;;;;;;;10.00;6.97;;;;;;;9.88;100.00;101024.81;5276967;28;20030;-85
2022/12/20 11:50:39;;;;;;;9.20;7.68;;;;;;;9.82;100.00;101019.03;5278816;28;20061;-84
2022/12/20 11:53:23;;;;;;;10.40;7.80;;;;;;;9.89;100.00;101027.34;5261066;28;20029;-85
2022/12/20 11:55:59;;;;;;;14.27;8.65;;;;;;;9.89;100.00;101016.69;5248622;28;20034;-85
2022/12/20 11:58:46;;;;;;;14.88;9.13;;;;;;;9.84;100.00;101022.41;5277735;28;20018;-85
2022/12/20 12:01:23;;;;;;;12.25;8.77;;;;;;;9.93;100.00;101009.25;5271024;28;20029;-85
2022/12/20 12:04:08;;;;;;;13.88;8.70;;;;;;;9.94;100.00;101013.59;5261500;28;20104;-85
2022/12/20 12:06:47;;;;;;;14.07;8.63;;;;;;;9.97;100.00;101016.00;5262396;28;20025;-84
2022/12/20 12:09:39;;;;;;;12.20;8.80;;;;;;;9.96;100.00;101006.34;5268035;28;20048;-85
2022/12/20 12:12:44;;;;;;;11.32;8.07;;;;;;;9.95;100.00;101012.63;5283998;28;20017;-84
2022/12/20 12:15:39;;;;;;;11.38;8.07;;;;;;;10.02;100.00;101014.59;5286772;28;20044;-83
2022/12/20 12:18:11;;;;;;;9.63;7.50;;;;;;;10.01;100.00;101020.06;5283399;28;20034;-84